首页
METAR-TAF:

METAR-TAF

机场 :

Reading Regional Airport (Carl A. Spaatz Field)

雷丁, 宾夕法尼亚州, 美国

纬度: 40-22-24N, 经度: 075-57-34W, 海拔: 105米

当前天气观测

该预报发布于27分钟前的16:54 UTC
风速4节,风向西
温度 24°C
湿度 78%
气压 1016 hPa
能見度: 16.1公里
少量云层高于2200英尺
阴天层高于3400英尺

METAR: KRDG 171654Z 28004KT 10SM FEW022 OVC034 24/20 A3001 RMK AO2 SLP163 T02390200

时间: 13:21 (17:21 UTC)

预报

该预报发布于5小时和53分钟前的11:28 UTC
预报有效从17日的 12点(UTC)到 18日的 12点(UTC)
风速3节,风向多变
能見度: 10公里
散云层高于4000英尺
多云层高于15000英尺
附近有阵雨
短暂存在
从 17日的 12点(UTC)到 17日的 14点(UTC)
能見度: 8.0公里
多云层高于5000英尺
小阵雨
从 17日的 1500点(UTC)
风速4节,风向多变
能見度: 10公里
多云层高于4000英尺
从 17日的 1800点(UTC)
风速3节,风向多变
能見度: 10公里
阴天层高于3500英尺, 积雨云.
附近有雷暴
从 18日的 0100点(UTC)
风速3节,风向多变
能見度: 6.4公里
多云层高于1200英尺
阵雨, 轻雾

TAF: KRDG 171128Z 1712/1812 VRB03KT P6SM VCSH SCT040 BKN150 TEMPO 1712/1714 5SM -SHRA BKN050 FM171500 VRB04KT P6SM BKN040 FM171800 VRB03KT P6SM VCTS OVC035CB FM180100 VRB03KT 4SM SHRA BR BKN012

超过4000个机场的气象观测和天气预报(METAR&TAF报告)。

可查询的气象台以黄色和红色小点在地图上表示。

将鼠标移到小点上方,可查看气象台名称。

然后点击查看天气观测和预报。

如需切换地图:点击带黑十字的绿色按钮放大地图;点击带横线的绿色按钮缩小地图;或者点击绿色箭头查看邻近地区的地图。


METAR-TAF: